sensor_id;sensor_type;location;lat;lon;timestamp;pressure;altitude;pressure_sealevel;temperature;humidity
49689;BME280;70518;51.400;7.428;2023-08-06T00:02:15;158731.69;;;18.54;100.00
49689;BME280;70518;51.400;7.428;2023-08-06T00:04:41;158718.75;;;18.49;100.00
49689;BME280;70518;51.400;7.428;2023-08-06T00:07:06;158700.53;;;18.42;100.00
49689;BME280;70518;51.400;7.428;2023-08-06T00:09:31;158653.84;;;18.23;100.00
49689;BME280;70518;51.400;7.428;2023-08-06T00:11:57;158708.28;;;18.45;100.00
49689;BME280;70518;51.400;7.428;2023-08-06T00:14:22;158691.44;;;18.38;100.00
49689;BME280;70518;51.400;7.428;2023-08-06T00:16:47;158729.13;;;18.53;100.00
49689;BME280;70518;51.400;7.428;2023-08-06T00:19:13;158697.97;;;18.41;100.00
49689;BME280;70518;51.400;7.428;2023-08-06T00:21:38;158723.91;;;18.51;100.00
49689;BME280;70518;51.400;7.428;2023-08-06T00:24:04;158748.53;;;18.60;100.00
49689;BME280;70518;51.400;7.428;2023-08-06T00:26:29;158774.50;;;18.70;100.00
49689;BME280;70518;51.400;7.428;2023-08-06T00:28:54;158783.53;;;18.74;100.00
49689;BME280;70518;51.400;7.428;2023-08-06T00:31:19;158718.75;;;18.49;100.00
49689;BME280;70518;51.400;7.428;2023-08-06T00:33:45;158744.69;;;18.59;100.00
49689;BME280;70518;51.400;7.428;2023-08-06T00:36:10;158747.25;;;18.60;100.00
49689;BME280;70518;51.400;7.428;2023-08-06T00:38:35;158694.03;;;18.39;100.00
49689;BME280;70518;51.400;7.428;2023-08-06T00:41:01;158682.41;;;18.35;100.00
49689;BME280;70518;51.400;7.428;2023-08-06T00:43:26;158666.84;;;18.28;100.00
49689;BME280;70518;51.400;7.428;2023-08-06T00:45:51;158627.97;;;18.13;100.00
49689;BME280;70518;51.400;7.428;2023-08-06T00:48:17;158591.69;;;17.99;100.00
49689;BME280;70518;51.400;7.428;2023-08-06T00:50:42;158600.72;;;18.03;100.00
49689;BME280;70518;51.400;7.428;2023-08-06T00:53:08;158608.50;;;18.06;100.00
49689;BME280;70518;51.400;7.428;2023-08-06T00:55:33;158627.97;;;18.13;100.00
49689;BME280;70518;51.400;7.428;2023-08-06T00:57:59;158668.16;;;18.29;100.00
49689;BME280;70518;51.400;7.428;2023-08-06T01:00:25;158722.59;;;18.50;100.00
49689;BME280;70518;51.400;7.428;2023-08-06T01:02:51;158748.53;;;18.60;100.00
49689;BME280;70518;51.400;7.428;2023-08-06T01:05:17;158723.91;;;18.51;100.00
49689;BME280;70518;51.400;7.428;2023-08-06T01:13:08;158695.34;;;18.40;100.00
49689;BME280;70518;51.400;7.428;2023-08-06T01:15:47;158690.19;;;18.38;100.00
49689;BME280;70518;51.400;7.428;2023-08-06T01:18:14;158712.22;;;18.46;100.00
49689;BME280;70518;51.400;7.428;2023-08-06T01:20:40;158704.44;;;18.43;100.00
49689;BME280;70518;51.400;7.428;2023-08-06T01:23:05;158681.09;;;18.34;100.00
49689;BME280;70518;51.400;7.428;2023-08-06T01:25:37;158675.94;;;18.32;100.00
49689;BME280;70518;51.400;7.428;2023-08-06T01:28:27;158723.91;;;18.51;100.00
49689;BME280;70518;51.400;7.428;2023-08-06T01:30:58;158699.22;;;18.41;100.00
49689;BME280;70518;51.400;7.428;2023-08-06T01:33:27;158721.34;;;18.50;100.00
49689;BME280;70518;51.400;7.428;2023-08-06T01:35:53;158773.19;;;18.70;100.00
49689;BME280;70518;51.400;7.428;2023-08-06T01:38:20;158716.06;;;18.48;100.00
49689;BME280;70518;51.400;7.428;2023-08-06T01:40:45;158708.28;;;18.45;100.00
49689;BME280;70518;51.400;7.428;2023-08-06T01:43:11;158730.38;;;18.53;100.00
49689;BME280;70518;51.400;7.428;2023-08-06T01:45:36;158755.03;;;18.63;100.00
49689;BME280;70518;51.400;7.428;2023-08-06T01:48:02;158744.69;;;18.59;100.00
49689;BME280;70518;51.400;7.428;2023-08-06T01:50:27;158714.78;;;18.47;100.00
49689;BME280;70518;51.400;7.428;2023-08-06T01:52:52;158723.91;;;18.51;100.00
49689;BME280;70518;51.400;7.428;2023-08-06T01:55:17;158722.59;;;18.50;100.00
49689;BME280;70518;51.400;7.428;2023-08-06T01:57:43;158683.66;;;18.35;100.00
49689;BME280;70518;51.400;7.428;2023-08-06T02:00:09;158691.44;;;18.38;100.00
49689;BME280;70518;51.400;7.428;2023-08-06T02:02:34;158730.38;;;18.53;100.00
49689;BME280;70518;51.400;7.428;2023-08-06T02:05:00;158762.81;;;18.66;100.00
49689;BME280;70518;51.400;7.428;2023-08-06T02:07:25;158611.09;;;18.07;100.00
49689;BME280;70518;51.400;7.428;2023-08-06T02:09:50;158613.72;;;18.08;100.00
49689;BME280;70518;51.400;7.428;2023-08-06T02:12:15;158652.59;;;18.23;100.00
49689;BME280;70518;51.400;7.428;2023-08-06T02:14:41;158642.22;;;18.19;100.00
49689;BME280;70518;51.400;7.428;2023-08-06T02:17:06;158688.88;;;18.37;100.00
49689;BME280;70518;51.400;7.428;2023-08-06T02:19:31;158721.34;;;18.50;100.00
49689;BME280;70518;51.400;7.428;2023-08-06T02:21:56;158730.38;;;18.53;100.00
49689;BME280;70518;51.400;7.428;2023-08-06T02:24:22;158733.00;;;18.54;100.00
49689;BME280;70518;51.400;7.428;2023-08-06T02:26:47;158669.41;;;18.29;100.00
49689;BME280;70518;51.400;7.428;2023-08-06T02:29:15;158668.16;;;18.29;100.00
49689;BME280;70518;51.400;7.428;2023-08-06T02:31:41;158696.66;;;18.40;100.00
49689;BME280;70518;51.400;7.428;2023-08-06T02:34:06;158714.78;;;18.47;100.00
49689;BME280;70518;51.400;7.428;2023-08-06T02:36:31;158717.38;;;18.48;100.00
49689;BME280;70518;51.400;7.428;2023-08-06T02:38:57;158709.59;;;18.45;100.00
49689;BME280;70518;51.400;7.428;2023-08-06T02:41:22;158709.59;;;18.45;100.00
49689;BME280;70518;51.400;7.428;2023-08-06T02:43:47;158749.84;;;18.61;100.00
49689;BME280;70518;51.400;7.428;2023-08-06T02:46:13;158778.34;;;18.72;100.00
49689;BME280;70518;51.400;7.428;2023-08-06T02:48:38;158771.88;;;18.69;100.00
49689;BME280;70518;51.400;7.428;2023-08-06T02:51:03;158766.72;;;18.67;100.00
49689;BME280;70518;51.400;7.428;2023-08-06T02:53:29;158780.97;;;18.73;100.00
49689;BME280;70518;51.400;7.428;2023-08-06T02:55:54;158765.41;;;18.67;100.00
49689;BME280;70518;51.400;7.428;2023-08-06T02:58:20;158765.41;;;18.67;100.00
49689;BME280;70518;51.400;7.428;2023-08-06T03:01:04;158751.16;;;18.61;100.00
49689;BME280;70518;51.400;7.428;2023-08-06T03:03:33;158765.41;;;18.67;100.00
49689;BME280;70518;51.400;7.428;2023-08-06T03:06:00;158762.81;;;18.66;100.00
49689;BME280;70518;51.400;7.428;2023-08-06T03:08:25;158735.59;;;18.55;100.00
49689;BME280;70518;51.400;7.428;2023-08-06T03:10:51;158743.38;;;18.58;100.00
49689;BME280;70518;51.400;7.428;2023-08-06T03:13:17;158672.03;;;18.30;100.00
49689;BME280;70518;51.400;7.428;2023-08-06T03:15:43;158672.03;;;18.30;100.00
49689;BME280;70518;51.400;7.428;2023-08-06T03:18:08;158608.50;;;18.06;100.00
49689;BME280;70518;51.400;7.428;2023-08-06T03:20:34;158583.91;;;17.96;100.00
49689;BME280;70518;51.400;7.428;2023-08-06T03:22:59;158650.00;;;18.22;100.00
49689;BME280;70518;51.400;7.428;2023-08-06T03:25:24;158638.31;;;18.17;100.00
49689;BME280;70518;51.400;7.428;2023-08-06T03:27:50;158633.13;;;18.15;100.00
49689;BME280;70518;51.400;7.428;2023-08-06T03:30:15;158625.34;;;18.12;100.00
49689;BME280;70518;51.400;7.428;2023-08-06T03:32:40;158669.41;;;18.29;100.00
49689;BME280;70518;51.400;7.428;2023-08-06T03:35:06;158679.78;;;18.33;100.00
49689;BME280;70518;51.400;7.428;2023-08-06T03:37:31;158657.78;;;18.25;100.00
49689;BME280;70518;51.400;7.428;2023-08-06T03:39:57;158651.28;;;18.22;100.00
49689;BME280;70518;51.400;7.428;2023-08-06T03:42:22;158620.19;;;18.10;100.00
49689;BME280;70518;51.400;7.428;2023-08-06T03:44:47;158633.13;;;18.15;100.00
49689;BME280;70518;51.400;7.428;2023-08-06T03:47:13;158657.78;;;18.25;100.00
49689;BME280;70518;51.400;7.428;2023-08-06T03:49:38;158669.41;;;18.29;100.00
49689;BME280;70518;51.400;7.428;2023-08-06T03:52:04;158666.84;;;18.28;100.00
49689;BME280;70518;51.400;7.428;2023-08-06T03:54:30;158612.41;;;18.07;100.00
49689;BME280;70518;51.400;7.428;2023-08-06T03:56:55;158595.56;;;18.01;100.00
49689;BME280;70518;51.400;7.428;2023-08-06T03:59:20;158627.97;;;18.13;100.00
49689;BME280;70518;51.400;7.428;2023-08-06T04:01:46;158578.69;;;17.94;100.00
49689;BME280;70518;51.400;7.428;2023-08-06T04:04:11;158555.38;;;17.85;100.00
49689;BME280;70518;51.400;7.428;2023-08-06T04:06:36;158550.19;;;17.83;100.00
49689;BME280;70518;51.400;7.428;2023-08-06T04:09:02;158555.38;;;17.85;100.00
49689;BME280;70518;51.400;7.428;2023-08-06T04:11:28;158546.34;;;17.82;100.00
49689;BME280;70518;51.400;7.428;2023-08-06T04:13:53;158580.00;;;17.95;100.00
49689;BME280;70518;51.400;7.428;2023-08-06T04:16:20;158605.94;;;18.05;100.00
49689;BME280;70518;51.400;7.428;2023-08-06T04:18:45;158605.94;;;18.05;100.00
49689;BME280;70518;51.400;7.428;2023-08-06T04:21:11;158604.63;;;18.04;100.00
49689;BME280;70518;51.400;7.428;2023-08-06T04:23:36;158583.91;;;17.96;100.00
49689;BME280;70518;51.400;7.428;2023-08-06T04:26:01;158624.03;;;18.12;100.00
49689;BME280;70518;51.400;7.428;2023-08-06T04:28:27;158633.13;;;18.15;100.00
49689;BME280;70518;51.400;7.428;2023-08-06T04:30:52;158648.69;;;18.21;100.00
49689;BME280;70518;51.400;7.428;2023-08-06T04:33:18;158640.91;;;18.18;100.00
49689;BME280;70518;51.400;7.428;2023-08-06T04:35:44;158659.06;;;18.25;100.00
49689;BME280;70518;51.400;7.428;2023-08-06T04:38:09;158557.97;;;17.86;100.00
49689;BME280;70518;51.400;7.428;2023-08-06T04:40:35;158539.81;;;17.79;100.00
49689;BME280;70518;51.400;7.428;2023-08-06T04:43:01;158524.28;;;17.73;100.00
49689;BME280;70518;51.400;7.428;2023-08-06T04:45:26;158486.69;;;17.58;100.00
49689;BME280;70518;51.400;7.428;2023-08-06T04:47:51;158490.63;;;17.60;100.00
49689;BME280;70518;51.400;7.428;2023-08-06T04:50:17;158510.03;;;17.67;100.00
49689;BME280;70518;51.400;7.428;2023-08-06T04:52:42;158516.50;;;17.70;100.00
49689;BME280;70518;51.400;7.428;2023-08-06T04:55:07;158526.88;;;17.74;100.00
49689;BME280;70518;51.400;7.428;2023-08-06T04:57:33;158559.28;;;17.87;100.00
49689;BME280;70518;51.400;7.428;2023-08-06T04:59:59;158535.94;;;17.77;100.00
49689;BME280;70518;51.400;7.428;2023-08-06T05:02:24;158586.47;;;17.97;100.00
49689;BME280;70518;51.400;7.428;2023-08-06T05:04:49;158568.34;;;17.90;100.00
49689;BME280;70518;51.400;7.428;2023-08-06T05:07:15;158541.13;;;17.80;100.00
49689;BME280;70518;51.400;7.428;2023-08-06T05:09:40;158572.22;;;17.92;100.00
49689;BME280;70518;51.400;7.428;2023-08-06T05:12:05;158583.91;;;17.96;100.00
49689;BME280;70518;51.400;7.428;2023-08-06T05:14:31;158620.19;;;18.10;100.00
49689;BME280;70518;51.400;7.428;2023-08-06T05:16:56;158655.16;;;18.24;100.00
49689;BME280;70518;51.400;7.428;2023-08-06T05:19:21;158424.47;;;17.34;100.00
49689;BME280;70518;51.400;7.428;2023-08-06T05:21:47;158392.13;;;17.21;100.00
49689;BME280;70518;51.400;7.428;2023-08-06T05:24:12;158476.38;;;17.54;100.00
49689;BME280;70518;51.400;7.428;2023-08-06T05:26:37;158542.44;;;17.80;100.00
49689;BME280;70518;51.400;7.428;2023-08-06T05:29:02;158539.81;;;17.79;100.00
49689;BME280;70518;51.400;7.428;2023-08-06T05:31:28;158557.97;;;17.86;100.00
49689;BME280;70518;51.400;7.428;2023-08-06T05:33:54;158590.38;;;17.99;100.00
49689;BME280;70518;51.400;7.428;2023-08-06T05:36:19;158625.34;;;18.12;100.00
49689;BME280;70518;51.400;7.428;2023-08-06T05:38:45;158537.25;;;17.78;100.00
49689;BME280;70518;51.400;7.428;2023-08-06T05:41:10;158512.63;;;17.68;100.00
49689;BME280;70518;51.400;7.428;2023-08-06T05:43:35;158523.00;;;17.72;100.00
49689;BME280;70518;51.400;7.428;2023-08-06T05:46:00;158567.06;;;17.90;100.00
49689;BME280;70518;51.400;7.428;2023-08-06T05:48:26;158589.09;;;17.98;100.00
49689;BME280;70518;51.400;7.428;2023-08-06T05:50:53;158621.50;;;18.11;100.00
49689;BME280;70518;51.400;7.428;2023-08-06T05:53:18;158622.75;;;18.11;100.00
49689;BME280;70518;51.400;7.428;2023-08-06T05:55:44;158573.53;;;17.92;100.00
49689;BME280;70518;51.400;7.428;2023-08-06T05:58:10;158574.84;;;17.93;100.00
49689;BME280;70518;51.400;7.428;2023-08-06T06:00:35;158604.63;;;18.04;100.00
49689;BME280;70518;51.400;7.428;2023-08-06T06:03:01;158609.78;;;18.06;100.00
49689;BME280;70518;51.400;7.428;2023-08-06T06:05:27;158648.69;;;18.21;100.00
49689;BME280;70518;51.400;7.428;2023-08-06T06:07:53;158577.38;;;17.94;100.00
49689;BME280;70518;51.400;7.428;2023-08-06T06:10:18;158621.50;;;18.11;100.00
49689;BME280;70518;51.400;7.428;2023-08-06T06:12:43;158666.84;;;18.28;100.00
49689;BME280;70518;51.400;7.428;2023-08-06T06:15:09;158664.25;;;18.27;100.00
49689;BME280;70518;51.400;7.428;2023-08-06T06:17:34;158617.56;;;18.09;100.00
49689;BME280;70518;51.400;7.428;2023-08-06T06:19:59;158617.56;;;18.09;100.00
49689;BME280;70518;51.400;7.428;2023-08-06T06:22:25;158668.16;;;18.29;100.00
49689;BME280;70518;51.400;7.428;2023-08-06T06:24:50;158681.09;;;18.34;100.00
49689;BME280;70518;51.400;7.428;2023-08-06T06:27:15;158678.50;;;18.33;100.00
49689;BME280;70518;51.400;7.428;2023-08-06T06:29:41;158686.25;;;18.36;100.00
49689;BME280;70518;51.400;7.428;2023-08-06T06:32:06;158717.38;;;18.48;100.00
49689;BME280;70518;51.400;7.428;2023-08-06T06:34:31;158708.28;;;18.45;100.00
49689;BME280;70518;51.400;7.428;2023-08-06T06:36:57;158714.78;;;18.47;100.00
49689;BME280;70518;51.400;7.428;2023-08-06T06:39:22;158744.69;;;18.59;100.00
49689;BME280;70518;51.400;7.428;2023-08-06T06:41:47;158722.59;;;18.50;100.00
49689;BME280;70518;51.400;7.428;2023-08-06T06:44:13;158749.84;;;18.61;100.00
49689;BME280;70518;51.400;7.428;2023-08-06T06:46:38;158769.28;;;18.68;100.00
49689;BME280;70518;51.400;7.428;2023-08-06T06:49:04;158774.50;;;18.70;100.00
49689;BME280;70518;51.400;7.428;2023-08-06T06:51:29;158718.75;;;18.49;100.00
49689;BME280;70518;51.400;7.428;2023-08-06T06:53:56;158690.19;;;18.38;100.00
49689;BME280;70518;51.400;7.428;2023-08-06T06:56:22;158705.75;;;18.44;100.00
49689;BME280;70518;51.400;7.428;2023-08-06T06:58:47;158691.44;;;18.38;100.00
49689;BME280;70518;51.400;7.428;2023-08-06T07:01:12;158716.06;;;18.48;100.00
49689;BME280;70518;51.400;7.428;2023-08-06T07:03:38;158729.13;;;18.53;100.00
49689;BME280;70518;51.400;7.428;2023-08-06T07:06:03;158770.59;;;18.69;100.00
49689;BME280;70518;51.400;7.428;2023-08-06T07:08:29;158783.53;;;18.74;100.00
49689;BME280;70518;51.400;7.428;2023-08-06T07:11:05;158826.34;;;18.91;100.00
49689;BME280;70518;51.400;7.428;2023-08-06T07:13:31;158814.66;;;18.86;100.00
49689;BME280;70518;51.400;7.428;2023-08-06T07:15:56;158812.09;;;18.85;100.00
49689;BME280;70518;51.400;7.428;2023-08-06T07:18:22;158813.38;;;18.85;100.00
49689;BME280;70518;51.400;7.428;2023-08-06T07:20:51;158836.69;;;18.95;100.00
49689;BME280;70518;51.400;7.428;2023-08-06T07:23:17;158840.59;;;18.96;100.00
49689;BME280;70518;51.400;7.428;2023-08-06T07:25:43;158884.69;;;19.13;100.00
49689;BME280;70518;51.400;7.428;2023-08-06T07:28:09;158848.38;;;18.99;100.00
49689;BME280;70518;51.400;7.428;2023-08-06T07:30:38;158875.59;;;19.10;100.00
49689;BME280;70518;51.400;7.428;2023-08-06T07:33:03;158856.16;;;19.02;100.00
49689;BME280;70518;51.400;7.428;2023-08-06T07:35:29;158891.16;;;19.16;100.00
49689;BME280;70518;51.400;7.428;2023-08-06T07:37:54;158873.03;;;19.09;100.00
49689;BME280;70518;51.400;7.428;2023-08-06T07:40:19;158866.56;;;19.06;100.00
49689;BME280;70518;51.400;7.428;2023-08-06T07:42:44;158888.59;;;19.15;100.00
49689;BME280;70518;51.400;7.428;2023-08-06T07:45:10;158893.75;;;19.17;100.00
49689;BME280;70518;51.400;7.428;2023-08-06T07:47:35;158933.97;;;19.32;100.00
49689;BME280;70518;51.400;7.428;2023-08-06T07:50:00;158935.28;;;19.33;100.00
49689;BME280;70518;51.400;7.428;2023-08-06T07:52:26;158957.38;;;19.42;100.00
49689;BME280;70518;51.400;7.428;2023-08-06T07:54:51;158969.03;;;19.46;100.00
49689;BME280;70518;51.400;7.428;2023-08-06T07:57:16;158970.34;;;19.47;100.00
49689;BME280;70518;51.400;7.428;2023-08-06T07:59:42;158954.75;;;19.40;100.00
49689;BME280;70518;51.400;7.428;2023-08-06T08:02:07;158953.47;;;19.40;100.00
49689;BME280;70518;51.400;7.428;2023-08-06T08:04:33;158948.25;;;19.38;100.00
49689;BME280;70518;51.400;7.428;2023-08-06T08:06:58;158971.63;;;19.47;100.00
49689;BME280;70518;51.400;7.428;2023-08-06T08:09:23;158985.91;;;19.53;100.00
49689;BME280;70518;51.400;7.428;2023-08-06T08:11:48;158975.50;;;19.49;100.00
49689;BME280;70518;51.400;7.428;2023-08-06T08:14:15;158985.91;;;19.53;100.00
49689;BME280;70518;51.400;7.428;2023-08-06T08:16:40;158983.28;;;19.52;100.00
49689;BME280;70518;51.400;7.428;2023-08-06T08:19:06;159002.78;;;19.59;100.00
49689;BME280;70518;51.400;7.428;2023-08-06T08:21:31;159026.13;;;19.68;100.00
49689;BME280;70518;51.400;7.428;2023-08-06T08:23:56;159041.69;;;19.74;100.00
49689;BME280;70518;51.400;7.428;2023-08-06T08:26:21;159017.03;;;19.65;100.00
49689;BME280;70518;51.400;7.428;2023-08-06T08:28:47;159031.28;;;19.70;100.00
49689;BME280;70518;51.400;7.428;2023-08-06T08:31:12;159045.56;;;19.76;100.00
49689;BME280;70518;51.400;7.428;2023-08-06T08:33:38;159080.56;;;19.89;100.00
49689;BME280;70518;51.400;7.428;2023-08-06T08:36:03;159080.56;;;19.89;100.00
49689;BME280;70518;51.400;7.428;2023-08-06T08:38:29;159053.34;;;19.79;100.00
49689;BME280;70518;51.400;7.428;2023-08-06T08:40:54;159087.09;;;19.92;100.00
49689;BME280;70518;51.400;7.428;2023-08-06T08:43:23;159115.63;;;20.03;100.00
49689;BME280;70518;51.400;7.428;2023-08-06T08:45:50;159097.44;;;19.96;100.00
49689;BME280;70518;51.400;7.428;2023-08-06T08:48:17;159078.00;;;19.88;100.00
49689;BME280;70518;51.400;7.428;2023-08-06T08:50:44;159087.09;;;19.92;100.00
49689;BME280;70518;51.400;7.428;2023-08-06T08:53:13;159078.00;;;19.88;100.00
49689;BME280;70518;51.400;7.428;2023-08-06T08:55:39;159078.00;;;19.88;100.00
49689;BME280;70518;51.400;7.428;2023-08-06T08:58:05;159109.16;;;20.01;100.00
49689;BME280;70518;51.400;7.428;2023-08-06T09:00:31;159122.09;;;20.06;100.00
49689;BME280;70518;51.400;7.428;2023-08-06T09:02:58;159123.41;;;20.06;100.00
49689;BME280;70518;51.400;7.428;2023-08-06T09:05:30;159120.81;;;20.05;100.00
49689;BME280;70518;51.400;7.428;2023-08-06T09:08:03;159140.28;;;20.13;100.00
49689;BME280;70518;51.400;7.428;2023-08-06T09:10:28;159127.28;;;20.08;100.00
49689;BME280;70518;51.400;7.428;2023-08-06T09:12:55;159132.50;;;20.10;100.00
49689;BME280;70518;51.400;7.428;2023-08-06T09:15:24;159129.88;;;20.09;100.00
49689;BME280;70518;51.400;7.428;2023-08-06T09:17:49;159137.69;;;20.12;100.00
49689;BME280;70518;51.400;7.428;2023-08-06T09:20:15;159151.94;;;20.17;100.00
49689;BME280;70518;51.400;7.428;2023-08-06T09:22:41;159140.28;;;20.13;100.00
49689;BME280;70518;51.400;7.428;2023-08-06T09:25:07;159124.72;;;20.07;100.00
49689;BME280;70518;51.400;7.428;2023-08-06T09:27:36;159127.28;;;20.08;100.00
49689;BME280;70518;51.400;7.428;2023-08-06T09:30:02;159079.31;;;19.89;100.00
49689;BME280;70518;51.400;7.428;2023-08-06T09:32:47;159079.31;;;19.89;100.00
49689;BME280;70518;51.400;7.428;2023-08-06T09:35:19;159061.13;;;19.82;100.00
49689;BME280;70518;51.400;7.428;2023-08-06T09:37:45;159059.81;;;19.81;100.00
49689;BME280;70518;51.400;7.428;2023-08-06T09:40:28;159110.44;;;20.01;100.00
49689;BME280;70518;51.400;7.428;2023-08-06T09:42:54;159140.28;;;20.13;100.00
49689;BME280;70518;51.400;7.428;2023-08-06T09:45:19;159142.84;;;20.14;100.00
49689;BME280;70518;51.400;7.428;2023-08-06T09:47:47;159155.88;;;20.19;100.00
49689;BME280;70518;51.400;7.428;2023-08-06T09:50:17;159163.66;;;20.22;100.00
49689;BME280;70518;51.400;7.428;2023-08-06T09:52:43;159187.06;;;20.31;100.00
49689;BME280;70518;51.400;7.428;2023-08-06T09:55:11;159180.53;;;20.28;100.00
49689;BME280;70518;51.400;7.428;2023-08-06T09:57:37;159231.16;;;20.48;100.00
49689;BME280;70518;51.400;7.428;2023-08-06T10:00:03;159231.16;;;20.48;100.00
49689;BME280;70518;51.400;7.428;2023-08-06T10:02:30;159222.06;;;20.44;100.00
49689;BME280;70518;51.400;7.428;2023-08-06T10:04:57;159280.47;;;20.67;100.00
49689;BME280;70518;51.400;7.428;2023-08-06T10:07:23;159315.53;;;20.81;100.00
49689;BME280;70518;51.400;7.428;2023-08-06T10:09:49;159394.75;;;21.12;100.00
49689;BME280;70518;51.400;7.428;2023-08-06T10:12:15;159320.72;;;20.83;100.00
49689;BME280;70518;51.400;7.428;2023-08-06T10:14:43;159328.50;;;20.86;100.00
49689;BME280;70518;51.400;7.428;2023-08-06T10:17:09;159292.16;;;20.72;100.00
49689;BME280;70518;51.400;7.428;2023-08-06T10:19:35;159316.84;;;20.81;100.00
49689;BME280;70518;51.400;7.428;2023-08-06T10:22:14;159310.31;;;20.79;100.00
49689;BME280;70518;51.400;7.428;2023-08-06T10:24:59;159324.63;;;20.84;100.00
49689;BME280;70518;51.400;7.428;2023-08-06T10:27:34;159354.47;;;20.96;100.00
49689;BME280;70518;51.400;7.428;2023-08-06T10:32:55;159375.25;;;21.04;100.00
49689;BME280;70518;51.400;7.428;2023-08-06T10:35:48;159427.22;;;21.24;100.00
49689;BME280;70518;51.400;7.428;2023-08-06T10:38:20;159363.53;;;20.99;100.00
49689;BME280;70518;51.400;7.428;2023-08-06T10:43:29;159377.84;;;21.05;100.00
49689;BME280;70518;51.400;7.428;2023-08-06T10:45:56;159409.06;;;21.17;100.00
49689;BME280;70518;51.400;7.428;2023-08-06T10:51:00;159444.09;;;21.31;100.00
49689;BME280;70518;51.400;7.428;2023-08-06T10:53:25;159388.25;;;21.09;100.00
49689;BME280;70518;51.400;7.428;2023-08-06T10:55:50;159373.94;;;21.03;100.00
49689;BME280;70518;51.400;7.428;2023-08-06T10:58:16;159475.28;;;21.43;100.00
49689;BME280;70518;51.400;7.428;2023-08-06T11:00:44;159403.84;;;21.15;100.00
49689;BME280;70518;51.400;7.428;2023-08-06T11:03:09;159401.28;;;21.14;100.00
49689;BME280;70518;51.400;7.428;2023-08-06T11:05:38;159412.94;;;21.19;100.00
49689;BME280;70518;51.400;7.428;2023-08-06T11:08:04;159367.44;;;21.01;100.00
49689;BME280;70518;51.400;7.428;2023-08-06T11:10:29;159425.91;;;21.24;100.00
49689;BME280;70518;51.400;7.428;2023-08-06T11:12:54;159435.00;;;21.27;100.00
49689;BME280;70518;51.400;7.428;2023-08-06T11:15:20;159463.56;;;21.38;100.00
49689;BME280;70518;51.400;7.428;2023-08-06T11:17:46;159462.28;;;21.38;100.00
49689;BME280;70518;51.400;7.428;2023-08-06T11:20:12;159458.38;;;21.36;100.00
49689;BME280;70518;51.400;7.428;2023-08-06T11:22:37;159447.97;;;21.32;100.00
49689;BME280;70518;51.400;7.428;2023-08-06T11:25:05;159497.34;;;21.51;100.00
49689;BME280;70518;51.400;7.428;2023-08-06T11:27:30;159477.88;;;21.44;100.00
49689;BME280;70518;51.400;7.428;2023-08-06T11:29:56;159486.94;;;21.47;100.00
49689;BME280;70518;51.400;7.428;2023-08-06T11:32:21;159547.97;;;21.71;100.00
49689;BME280;70518;51.400;7.428;2023-08-06T11:34:46;159566.16;;;21.78;100.00
49689;BME280;70518;51.400;7.428;2023-08-06T11:37:12;159583.06;;;21.85;100.00
49689;BME280;70518;51.400;7.428;2023-08-06T11:39:38;159535.00;;;21.66;100.00
49689;BME280;70518;51.400;7.428;2023-08-06T11:42:04;159570.03;;;21.80;100.00
49689;BME280;70518;51.400;7.428;2023-08-06T11:44:32;159610.38;;;21.95;100.00
49689;BME280;70518;51.400;7.428;2023-08-06T11:46:58;159628.56;;;22.02;100.00
49689;BME280;70518;51.400;7.428;2023-08-06T11:49:47;159615.53;;;21.97;100.00
49689;BME280;70518;51.400;7.428;2023-08-06T11:52:21;159635.06;;;22.05;100.00
49689;BME280;70518;51.400;7.428;2023-08-06T11:55:03;159685.69;;;22.25;100.00
49689;BME280;70518;51.400;7.428;2023-08-06T11:57:31;159659.75;;;22.14;100.00
49689;BME280;70518;51.400;7.428;2023-08-06T12:00:02;159629.88;;;22.03;100.00
49689;BME280;70518;51.400;7.428;2023-08-06T12:02:31;159584.38;;;21.85;100.00
49689;BME280;70518;51.400;7.428;2023-08-06T12:04:59;159575.28;;;21.82;100.00
49689;BME280;70518;51.400;7.428;2023-08-06T12:07:29;159553.19;;;21.73;100.00
49689;BME280;70518;51.400;7.428;2023-08-06T12:09:55;159567.47;;;21.79;100.00
49689;BME280;70518;51.400;7.428;2023-08-06T12:12:21;159486.94;;;21.47;100.00
49689;BME280;70518;51.400;7.428;2023-08-06T12:14:46;159550.56;;;21.72;100.00
49689;BME280;70518;51.400;7.428;2023-08-06T12:17:11;159511.63;;;21.57;100.00
49689;BME280;70518;51.400;7.428;2023-08-06T12:19:37;159537.59;;;21.67;100.00
49689;BME280;70518;51.400;7.428;2023-08-06T12:22:02;159583.06;;;21.85;100.00
49689;BME280;70518;51.400;7.428;2023-08-06T12:24:28;159554.44;;;21.74;100.00
49689;BME280;70518;51.400;7.428;2023-08-06T12:26:57;159603.88;;;21.93;100.00
49689;BME280;70518;51.400;7.428;2023-08-06T12:29:22;159389.56;;;21.10;100.00
49689;BME280;70518;51.400;7.428;2023-08-06T12:31:48;159497.34;;;21.51;100.00
49689;BME280;70518;51.400;7.428;2023-08-06T12:34:13;159499.94;;;21.52;100.00
49689;BME280;70518;51.400;7.428;2023-08-06T12:36:39;159480.44;;;21.45;100.00
49689;BME280;70518;51.400;7.428;2023-08-06T12:39:04;159450.59;;;21.33;100.00
49689;BME280;70518;51.400;7.428;2023-08-06T12:41:29;159467.47;;;21.40;100.00
49689;BME280;70518;51.400;7.428;2023-08-06T12:43:55;159483.06;;;21.46;100.00
49689;BME280;70518;51.400;7.428;2023-08-06T12:46:20;159498.66;;;21.52;100.00
49689;BME280;70518;51.400;7.428;2023-08-06T12:48:45;159502.50;;;21.53;100.00
49689;BME280;70518;51.400;7.428;2023-08-06T12:51:10;159467.47;;;21.40;100.00